createdAt,value
2022-09-15T00:04:03.229Z,100.00
2022-09-15T00:09:04.866Z,100.00
2022-09-15T00:14:07.183Z,100.00
2022-09-15T00:19:10.664Z,100.00
2022-09-15T00:24:12.084Z,100.00
2022-09-15T00:29:13.394Z,100.00
2022-09-15T00:34:14.706Z,100.00
2022-09-15T00:39:16.493Z,100.00
2022-09-15T00:44:23.942Z,100.00
2022-09-15T00:49:28.171Z,100.00
2022-09-15T00:54:32.325Z,100.00
2022-09-15T00:59:35.101Z,100.00
2022-09-15T01:04:36.499Z,100.00
2022-09-15T01:09:40.188Z,100.00
2022-09-15T01:14:41.521Z,100.00
2022-09-15T01:19:45.877Z,100.00
2022-09-15T01:25:07.550Z,100.00
2022-09-15T01:30:11.987Z,100.00
2022-09-15T01:35:20.181Z,100.00
2022-09-15T01:40:22.935Z,100.00
2022-09-15T01:45:30.508Z,100.00
2022-09-15T01:50:41.653Z,100.00
2022-09-15T01:56:06.289Z,100.00
2022-09-15T02:01:29.711Z,100.00
2022-09-15T02:06:36.690Z,100.00
2022-09-15T02:11:41.725Z,100.00
2022-09-15T02:16:45.962Z,100.00
2022-09-15T02:21:54.815Z,100.00
2022-09-15T02:26:57.594Z,100.00
2022-09-15T02:32:06.807Z,100.00
2022-09-15T02:37:09.636Z,100.00
2022-09-15T02:42:11.181Z,100.00
2022-09-15T02:47:13.442Z,100.00
2022-09-15T02:52:14.784Z,100.00
2022-09-15T02:57:16.484Z,100.00
2022-09-15T03:02:20.549Z,100.00
2022-09-15T03:07:22.070Z,100.00
2022-09-15T03:12:23.696Z,100.00
2022-09-15T03:17:25.284Z,100.00
2022-09-15T03:22:26.605Z,100.00
2022-09-15T03:27:27.943Z,100.00
2022-09-15T03:32:29.285Z,100.00
2022-09-15T03:37:30.617Z,100.00
2022-09-15T03:42:32.305Z,100.00
2022-09-15T03:47:33.637Z,100.00
2022-09-15T03:52:34.975Z,100.00
2022-09-15T03:57:36.300Z,100.00
2022-09-15T04:02:37.631Z,100.00
2022-09-15T04:07:41.991Z,100.00
2022-09-15T04:12:44.325Z,100.00
2022-09-15T04:17:45.855Z,100.00
2022-09-15T04:22:47.147Z,100.00
2022-09-15T04:27:48.453Z,100.00
2022-09-15T04:32:50.096Z,100.00
2022-09-15T04:37:51.600Z,100.00
2022-09-15T04:42:53.830Z,100.00
2022-09-15T04:47:55.156Z,100.00
2022-09-15T04:52:56.575Z,100.00
2022-09-15T04:57:58.099Z,100.00
2022-09-15T05:02:59.764Z,100.00
2022-09-15T05:08:01.392Z,100.00
2022-09-15T05:13:02.767Z,100.00
2022-09-15T05:18:04.161Z,100.00
2022-09-15T05:23:05.478Z,100.00
2022-09-15T05:28:07.724Z,100.00
2022-09-15T05:33:09.033Z,100.00
2022-09-15T05:38:10.353Z,100.00
2022-09-15T05:43:11.665Z,100.00
2022-09-15T05:48:13.024Z,100.00
2022-09-15T05:53:14.337Z,100.00
2022-09-15T05:58:15.648Z,100.00
2022-09-15T06:03:17.085Z,100.00
2022-09-15T06:08:18.437Z,100.00
2022-09-15T06:13:19.810Z,100.00
2022-09-15T06:18:21.126Z,100.00
2022-09-15T06:23:22.451Z,100.00
2022-09-15T06:28:25.010Z,100.00
2022-09-15T06:33:27.219Z,100.00
2022-09-15T06:38:29.055Z,100.00
2022-09-15T06:43:30.939Z,100.00
2022-09-15T06:48:32.333Z,100.00
2022-09-15T06:53:35.102Z,100.00
2022-09-15T06:58:37.098Z,100.00
2022-09-15T07:03:39.211Z,100.00
2022-09-15T07:08:41.027Z,100.00
2022-09-15T07:13:42.684Z,100.00
2022-09-15T07:18:44.773Z,100.00
2022-09-15T07:23:46.925Z,100.00
2022-09-15T07:28:53.676Z,100.00
2022-09-15T07:33:55.516Z,100.00
2022-09-15T07:38:57.290Z,100.00
2022-09-15T07:43:59.912Z,100.00
2022-09-15T07:49:03.018Z,100.00
2022-09-15T07:54:04.861Z,100.00
2022-09-15T07:59:06.177Z,100.00
2022-09-15T08:04:07.496Z,100.00
2022-09-15T08:09:14.486Z,100.00
2022-09-15T08:14:15.800Z,100.00
2022-09-15T08:19:17.109Z,100.00
2022-09-15T08:24:18.489Z,100.00
2022-09-15T08:29:19.875Z,100.00
2022-09-15T08:34:21.609Z,100.00
2022-09-15T08:39:23.068Z,100.00
2022-09-15T08:44:27.388Z,98.53
2022-09-15T08:49:51.450Z,88.65
2022-09-15T08:54:56.950Z,78.86
2022-09-15T08:59:59.645Z,82.39
2022-09-15T09:05:19.591Z,85.58
2022-09-15T09:10:46.663Z,91.20
2022-09-15T09:16:03.874Z,90.52
2022-09-15T09:21:13.447Z,88.66
2022-09-15T09:26:15.458Z,83.36
2022-09-15T09:31:18.963Z,86.43
2022-09-15T09:36:20.915Z,78.55
2022-09-15T09:41:35.429Z,88.23
2022-09-15T09:46:36.781Z,84.55
2022-09-15T09:51:59.914Z,79.85
2022-09-15T09:57:13.169Z,79.94
2022-09-15T10:02:16.134Z,82.14
2022-09-15T10:07:22.765Z,83.56
2022-09-15T10:12:40.560Z,83.02
2022-09-15T10:17:43.919Z,82.76
2022-09-15T10:22:45.333Z,83.31
2022-09-15T10:28:06.907Z,86.54
2022-09-15T10:33:23.843Z,90.62
2022-09-15T10:38:38.815Z,88.45
2022-09-15T10:43:47.863Z,83.65
2022-09-15T10:48:49.282Z,75.59
2022-09-15T10:53:57.650Z,76.06
2022-09-15T10:59:15.038Z,73.13
2022-09-15T11:04:42.806Z,69.62
2022-09-15T11:09:44.113Z,67.52
2022-09-15T11:15:23.787Z,68.31
2022-09-15T11:20:43.930Z,64.84
2022-09-15T11:25:48.716Z,57.88
2022-09-15T11:31:02.759Z,63.18
2022-09-15T11:36:11.128Z,54.74
2022-09-15T11:41:24.659Z,56.13
2022-09-15T11:46:30.153Z,59.61
2022-09-15T11:51:34.724Z,59.12
2022-09-15T11:56:42.655Z,63.21
2022-09-15T12:01:49.016Z,61.64
2022-09-15T12:06:57.026Z,63.21
2022-09-15T12:12:01.885Z,60.38
2022-09-15T12:17:09.739Z,56.74
2022-09-15T12:22:14.073Z,57.52
2022-09-15T12:27:16.835Z,58.61
2022-09-15T12:32:31.968Z,58.93
2022-09-15T12:37:39.746Z,54.21
2022-09-15T12:42:45.543Z,57.87
2022-09-15T12:47:54.617Z,56.62
2022-09-15T12:53:01.348Z,57.59
2022-09-15T12:58:09.864Z,59.02
2022-09-15T13:03:55.351Z,57.37
2022-09-15T13:09:05.961Z,56.42
2022-09-15T13:14:19.080Z,58.66
2022-09-15T13:19:22.388Z,57.06
2022-09-15T13:24:41.708Z,57.32
2022-09-15T13:29:48.124Z,58.17
2022-09-15T13:35:09.683Z,62.03
2022-09-15T13:40:32.820Z,59.62
2022-09-15T13:45:44.926Z,56.96
2022-09-15T13:50:55.534Z,56.54
2022-09-15T13:55:57.299Z,57.90
2022-09-15T14:01:00.543Z,56.73
2022-09-15T14:06:01.998Z,58.42
2022-09-15T14:11:06.767Z,57.22
2022-09-15T14:21:25.985Z,58.65
2022-09-15T14:26:29.906Z,57.56
2022-09-15T14:31:35.942Z,59.67
2022-09-15T14:36:37.313Z,61.30
2022-09-15T14:41:40.055Z,60.05
2022-09-15T14:46:41.384Z,58.36
2022-09-15T14:51:43.633Z,59.29
2022-09-15T14:56:45.719Z,58.32
2022-09-15T15:01:53.200Z,59.57
2022-09-15T15:07:01.760Z,61.73
2022-09-15T15:12:19.165Z,61.17
2022-09-15T15:17:48.896Z,61.62
2022-09-15T15:23:08.772Z,62.94
2022-09-15T15:28:28.555Z,64.19
2022-09-15T15:33:30.038Z,66.23
2022-09-15T15:38:33.850Z,65.41
2022-09-15T15:43:35.420Z,67.55
2022-09-15T15:48:38.212Z,68.24
2022-09-15T15:53:40.051Z,71.70
2022-09-15T15:58:41.351Z,72.37
2022-09-15T16:03:42.631Z,73.85
2022-09-15T16:08:44.741Z,75.79
2022-09-15T16:13:46.928Z,74.81
2022-09-15T16:18:48.783Z,75.87
2022-09-15T16:23:50.097Z,76.95
2022-09-15T16:28:52.177Z,79.98
2022-09-15T16:33:53.706Z,78.55
2022-09-15T16:38:55.086Z,78.53
2022-09-15T16:43:56.563Z,77.78
2022-09-15T16:48:57.907Z,78.43
2022-09-15T16:53:59.470Z,81.15
2022-09-15T16:59:00.925Z,80.17
2022-09-15T17:04:03.253Z,80.44
2022-09-15T17:09:04.862Z,81.38
2022-09-15T17:14:06.168Z,78.79
2022-09-15T17:19:07.475Z,79.24
2022-09-15T17:24:09.139Z,81.12
2022-09-15T17:29:10.458Z,81.02
2022-09-15T17:34:13.960Z,79.67
2022-09-15T17:39:15.271Z,78.57
2022-09-15T17:44:16.585Z,80.50
2022-09-15T17:49:17.883Z,80.58
2022-09-15T17:54:19.512Z,81.51
2022-09-15T17:59:20.825Z,77.48
2022-09-15T18:04:22.129Z,79.28
2022-09-15T18:09:23.428Z,78.31
2022-09-15T18:14:24.741Z,77.77
2022-09-15T18:19:26.451Z,77.97
2022-09-15T18:24:28.413Z,80.64
2022-09-15T18:29:29.703Z,81.17
2022-09-15T18:34:31.118Z,83.09
2022-09-15T18:39:32.432Z,80.21
2022-09-15T18:44:33.730Z,80.51
2022-09-15T18:49:35.052Z,83.22
2022-09-15T18:54:36.391Z,81.56
2022-09-15T18:59:38.795Z,80.63
2022-09-15T19:04:41.385Z,82.42
2022-09-15T19:09:42.682Z,80.74
2022-09-15T19:14:46.580Z,81.38
2022-09-15T19:19:48.183Z,83.15
2022-09-15T19:24:49.487Z,81.89
2022-09-15T19:29:50.833Z,84.16
2022-09-15T19:34:52.193Z,84.92
2022-09-15T19:39:54.125Z,85.62
2022-09-15T19:44:55.589Z,83.71
2022-09-15T19:49:56.968Z,84.20
2022-09-15T19:54:58.272Z,82.80
2022-09-15T19:59:59.590Z,85.79
2022-09-15T20:05:00.882Z,86.10
2022-09-15T20:10:02.651Z,84.70
2022-09-15T20:15:04.275Z,83.75
2022-09-15T20:20:05.804Z,83.44
2022-09-15T20:25:07.230Z,84.61
2022-09-15T20:30:08.864Z,86.46
2022-09-15T20:35:10.281Z,85.97
2022-09-15T20:40:11.617Z,84.50
2022-09-15T20:45:13.023Z,84.64
2022-09-15T20:55:15.819Z,87.07
2022-09-15T21:00:17.225Z,84.93
2022-09-15T21:05:18.533Z,83.77
2022-09-15T21:10:19.848Z,82.48
2022-09-15T21:15:21.151Z,84.03
2022-09-15T21:20:22.466Z,84.37
2022-09-15T21:25:23.962Z,80.90
2022-09-15T21:30:25.264Z,81.42
2022-09-15T21:35:26.587Z,80.40
2022-09-15T21:40:28.136Z,82.00
2022-09-15T21:45:30.106Z,79.99
2022-09-15T21:50:31.428Z,80.90
2022-09-15T21:55:35.592Z,81.55
2022-09-15T22:00:36.945Z,81.69
2022-09-15T22:05:41.659Z,81.83
2022-09-15T22:10:43.453Z,81.68
2022-09-15T22:15:44.759Z,81.96
2022-09-15T22:20:46.190Z,83.83
2022-09-15T22:25:47.477Z,84.96
2022-09-15T22:30:48.772Z,86.33
2022-09-15T22:35:50.130Z,83.77
2022-09-15T22:40:51.621Z,84.57
2022-09-15T22:45:53.880Z,84.27
2022-09-15T22:50:55.250Z,84.72
2022-09-15T22:56:23.189Z,84.83
2022-09-15T23:01:26.389Z,86.70
2022-09-15T23:06:29.446Z,87.26
2022-09-15T23:11:33.234Z,87.97
2022-09-15T23:16:34.661Z,88.36
2022-09-15T23:21:36.629Z,89.24
2022-09-15T23:26:38.071Z,86.36
2022-09-15T23:31:39.474Z,87.24
2022-09-15T23:36:40.833Z,85.38
2022-09-15T23:41:42.143Z,84.64
2022-09-15T23:46:43.513Z,85.56
2022-09-15T23:51:45.317Z,87.33
2022-09-15T23:56:46.620Z,86.86
